sensor_id;sensor_type;location;lat;lon;timestamp;P1;durP1;ratioP1;P2;durP2;ratioP2
19776;SDS011;10047;42.490;26.012;2022-12-24T00:00:21;88.13;;;58.42;;
19776;SDS011;10047;42.490;26.012;2022-12-24T00:02:48;91.70;;;58.10;;
19776;SDS011;10047;42.490;26.012;2022-12-24T00:05:14;80.97;;;54.08;;
19776;SDS011;10047;42.490;26.012;2022-12-24T00:07:41;81.13;;;52.95;;
19776;SDS011;10047;42.490;26.012;2022-12-24T00:10:07;79.82;;;54.08;;
19776;SDS011;10047;42.490;26.012;2022-12-24T00:12:33;82.47;;;53.33;;
19776;SDS011;10047;42.490;26.012;2022-12-24T00:14:58;81.97;;;52.78;;
19776;SDS011;10047;42.490;26.012;2022-12-24T00:17:24;74.97;;;51.40;;
19776;SDS011;10047;42.490;26.012;2022-12-24T00:19:49;83.78;;;54.17;;
19776;SDS011;10047;42.490;26.012;2022-12-24T00:22:14;81.32;;;52.78;;
19776;SDS011;10047;42.490;26.012;2022-12-24T00:24:40;75.55;;;49.20;;
19776;SDS011;10047;42.490;26.012;2022-12-24T00:27:05;72.22;;;49.05;;
19776;SDS011;10047;42.490;26.012;2022-12-24T00:29:31;66.32;;;47.40;;
19776;SDS011;10047;42.490;26.012;2022-12-24T00:31:57;72.13;;;47.33;;
19776;SDS011;10047;42.490;26.012;2022-12-24T00:34:23;66.80;;;45.67;;
19776;SDS011;10047;42.490;26.012;2022-12-24T00:36:49;75.55;;;51.08;;
19776;SDS011;10047;42.490;26.012;2022-12-24T00:39:14;75.78;;;49.83;;
19776;SDS011;10047;42.490;26.012;2022-12-24T00:44:16;79.63;;;51.10;;
19776;SDS011;10047;42.490;26.012;2022-12-24T00:46:42;79.65;;;51.70;;
19776;SDS011;10047;42.490;26.012;2022-12-24T00:49:07;77.07;;;51.30;;
19776;SDS011;10047;42.490;26.012;2022-12-24T00:51:33;77.78;;;51.60;;
19776;SDS011;10047;42.490;26.012;2022-12-24T00:54:00;84.63;;;54.38;;
19776;SDS011;10047;42.490;26.012;2022-12-24T00:56:25;88.90;;;55.10;;
19776;SDS011;10047;42.490;26.012;2022-12-24T00:58:51;82.35;;;54.33;;
19776;SDS011;10047;42.490;26.012;2022-12-24T01:01:17;82.93;;;53.88;;
19776;SDS011;10047;42.490;26.012;2022-12-24T01:03:43;77.97;;;51.55;;
19776;SDS011;10047;42.490;26.012;2022-12-24T01:06:12;83.45;;;57.03;;
19776;SDS011;10047;42.490;26.012;2022-12-24T01:08:44;99.78;;;71.40;;
19776;SDS011;10047;42.490;26.012;2022-12-24T01:11:10;88.38;;;62.28;;
19776;SDS011;10047;42.490;26.012;2022-12-24T01:13:37;91.18;;;60.45;;
19776;SDS011;10047;42.490;26.012;2022-12-24T01:16:10;82.43;;;55.78;;
19776;SDS011;10047;42.490;26.012;2022-12-24T01:18:38;73.90;;;47.00;;
19776;SDS011;10047;42.490;26.012;2022-12-24T01:21:03;64.15;;;43.90;;
19776;SDS011;10047;42.490;26.012;2022-12-24T01:23:29;67.70;;;44.88;;
19776;SDS011;10047;42.490;26.012;2022-12-24T01:25:59;66.25;;;45.65;;
19776;SDS011;10047;42.490;26.012;2022-12-24T01:28:25;66.57;;;44.75;;
19776;SDS011;10047;42.490;26.012;2022-12-24T01:30:51;64.68;;;43.47;;
19776;SDS011;10047;42.490;26.012;2022-12-24T01:33:16;72.28;;;47.78;;
19776;SDS011;10047;42.490;26.012;2022-12-24T01:35:42;70.22;;;47.10;;
19776;SDS011;10047;42.490;26.012;2022-12-24T01:38:08;71.65;;;47.03;;
19776;SDS011;10047;42.490;26.012;2022-12-24T01:40:35;76.18;;;49.25;;
19776;SDS011;10047;42.490;26.012;2022-12-24T01:43:21;72.78;;;47.92;;
19776;SDS011;10047;42.490;26.012;2022-12-24T01:54:08;72.85;;;48.22;;
19776;SDS011;10047;42.490;26.012;2022-12-24T01:56:49;72.53;;;49.10;;
19776;SDS011;10047;42.490;26.012;2022-12-24T01:59:19;81.30;;;50.58;;
19776;SDS011;10047;42.490;26.012;2022-12-24T02:01:46;72.80;;;49.15;;
19776;SDS011;10047;42.490;26.012;2022-12-24T02:07:04;72.13;;;49.63;;
19776;SDS011;10047;42.490;26.012;2022-12-24T02:09:29;66.35;;;46.03;;
19776;SDS011;10047;42.490;26.012;2022-12-24T02:11:57;69.88;;;45.55;;
19776;SDS011;10047;42.490;26.012;2022-12-24T02:14:23;74.78;;;49.35;;
19776;SDS011;10047;42.490;26.012;2022-12-24T02:16:59;74.07;;;48.03;;
19776;SDS011;10047;42.490;26.012;2022-12-24T02:22:53;60.63;;;42.35;;
19776;SDS011;10047;42.490;26.012;2022-12-24T02:31:01;50.53;;;36.22;;
19776;SDS011;10047;42.490;26.012;2022-12-24T02:33:34;51.88;;;37.78;;
19776;SDS011;10047;42.490;26.012;2022-12-24T02:36:14;46.60;;;35.05;;
19776;SDS011;10047;42.490;26.012;2022-12-24T02:38:48;49.33;;;35.72;;
19776;SDS011;10047;42.490;26.012;2022-12-24T02:41:34;53.67;;;39.40;;
19776;SDS011;10047;42.490;26.012;2022-12-24T02:44:24;61.00;;;42.38;;
19776;SDS011;10047;42.490;26.012;2022-12-24T02:46:52;58.40;;;40.05;;
19776;SDS011;10047;42.490;26.012;2022-12-24T02:49:20;61.40;;;42.70;;
19776;SDS011;10047;42.490;26.012;2022-12-24T02:51:45;58.58;;;41.15;;
19776;SDS011;10047;42.490;26.012;2022-12-24T02:54:11;64.43;;;43.38;;
19776;SDS011;10047;42.490;26.012;2022-12-24T03:02:15;60.38;;;40.75;;
19776;SDS011;10047;42.490;26.012;2022-12-24T03:04:58;52.67;;;38.10;;
19776;SDS011;10047;42.490;26.012;2022-12-24T03:07:28;59.25;;;42.00;;
19776;SDS011;10047;42.490;26.012;2022-12-24T03:12:42;60.28;;;40.97;;
19776;SDS011;10047;42.490;26.012;2022-12-24T03:15:12;60.20;;;41.47;;
19776;SDS011;10047;42.490;26.012;2022-12-24T03:17:42;61.45;;;42.38;;
19776;SDS011;10047;42.490;26.012;2022-12-24T03:20:11;63.03;;;42.45;;
19776;SDS011;10047;42.490;26.012;2022-12-24T03:22:41;87.07;;;52.83;;
19776;SDS011;10047;42.490;26.012;2022-12-24T03:25:16;99.05;;;57.80;;
19776;SDS011;10047;42.490;26.012;2022-12-24T03:27:42;98.40;;;56.03;;
19776;SDS011;10047;42.490;26.012;2022-12-24T03:30:12;98.68;;;58.65;;
19776;SDS011;10047;42.490;26.012;2022-12-24T03:32:38;95.70;;;58.30;;
19776;SDS011;10047;42.490;26.012;2022-12-24T03:35:05;83.60;;;51.85;;
19776;SDS011;10047;42.490;26.012;2022-12-24T03:37:31;113.90;;;65.88;;
19776;SDS011;10047;42.490;26.012;2022-12-24T03:39:56;106.38;;;65.13;;
19776;SDS011;10047;42.490;26.012;2022-12-24T03:42:22;97.47;;;58.10;;
19776;SDS011;10047;42.490;26.012;2022-12-24T03:44:48;86.10;;;54.30;;
19776;SDS011;10047;42.490;26.012;2022-12-24T03:47:13;94.35;;;56.83;;
19776;SDS011;10047;42.490;26.012;2022-12-24T03:49:38;96.47;;;58.00;;
19776;SDS011;10047;42.490;26.012;2022-12-24T03:52:04;84.18;;;53.22;;
19776;SDS011;10047;42.490;26.012;2022-12-24T03:54:34;87.65;;;53.83;;
19776;SDS011;10047;42.490;26.012;2022-12-24T03:56:59;80.05;;;49.10;;
19776;SDS011;10047;42.490;26.012;2022-12-24T03:59:25;61.10;;;38.90;;
19776;SDS011;10047;42.490;26.012;2022-12-24T04:01:51;96.85;;;61.13;;
19776;SDS011;10047;42.490;26.012;2022-12-24T04:04:17;81.93;;;52.80;;
19776;SDS011;10047;42.490;26.012;2022-12-24T04:06:42;74.57;;;44.75;;
19776;SDS011;10047;42.490;26.012;2022-12-24T04:09:08;75.53;;;47.70;;
19776;SDS011;10047;42.490;26.012;2022-12-24T04:11:33;64.57;;;42.55;;
19776;SDS011;10047;42.490;26.012;2022-12-24T04:13:58;67.53;;;43.55;;
19776;SDS011;10047;42.490;26.012;2022-12-24T04:16:24;65.95;;;43.33;;
19776;SDS011;10047;42.490;26.012;2022-12-24T04:18:49;66.72;;;44.42;;
19776;SDS011;10047;42.490;26.012;2022-12-24T04:21:15;68.20;;;44.58;;
19776;SDS011;10047;42.490;26.012;2022-12-24T04:23:41;75.43;;;47.55;;
19776;SDS011;10047;42.490;26.012;2022-12-24T04:26:08;69.03;;;46.97;;
19776;SDS011;10047;42.490;26.012;2022-12-24T04:28:35;74.97;;;48.92;;
19776;SDS011;10047;42.490;26.012;2022-12-24T04:31:03;76.97;;;46.13;;
19776;SDS011;10047;42.490;26.012;2022-12-24T04:33:31;70.88;;;48.05;;
19776;SDS011;10047;42.490;26.012;2022-12-24T04:35:57;72.75;;;47.35;;
19776;SDS011;10047;42.490;26.012;2022-12-24T04:38:23;76.55;;;50.72;;
19776;SDS011;10047;42.490;26.012;2022-12-24T04:40:56;77.82;;;52.90;;
19776;SDS011;10047;42.490;26.012;2022-12-24T04:43:26;77.10;;;52.08;;
19776;SDS011;10047;42.490;26.012;2022-12-24T04:45:52;75.53;;;50.15;;
19776;SDS011;10047;42.490;26.012;2022-12-24T04:48:17;77.28;;;50.38;;
19776;SDS011;10047;42.490;26.012;2022-12-24T04:50:43;77.97;;;51.95;;
19776;SDS011;10047;42.490;26.012;2022-12-24T04:53:08;78.85;;;54.85;;
19776;SDS011;10047;42.490;26.012;2022-12-24T04:55:33;81.20;;;54.28;;
19776;SDS011;10047;42.490;26.012;2022-12-24T04:57:59;74.70;;;52.55;;
19776;SDS011;10047;42.490;26.012;2022-12-24T05:00:24;73.65;;;50.42;;
19776;SDS011;10047;42.490;26.012;2022-12-24T05:02:49;69.55;;;46.45;;
19776;SDS011;10047;42.490;26.012;2022-12-24T05:05:15;75.50;;;52.60;;
19776;SDS011;10047;42.490;26.012;2022-12-24T05:07:40;78.85;;;51.40;;
19776;SDS011;10047;42.490;26.012;2022-12-24T05:10:06;82.05;;;53.50;;
19776;SDS011;10047;42.490;26.012;2022-12-24T05:12:32;79.10;;;53.78;;
19776;SDS011;10047;42.490;26.012;2022-12-24T05:14:57;70.47;;;47.97;;
19776;SDS011;10047;42.490;26.012;2022-12-24T05:17:23;74.35;;;49.50;;
19776;SDS011;10047;42.490;26.012;2022-12-24T05:19:48;77.50;;;51.45;;
19776;SDS011;10047;42.490;26.012;2022-12-24T05:22:14;77.97;;;51.55;;
19776;SDS011;10047;42.490;26.012;2022-12-24T05:25:00;86.68;;;54.28;;
19776;SDS011;10047;42.490;26.012;2022-12-24T05:27:44;90.68;;;60.10;;
19776;SDS011;10047;42.490;26.012;2022-12-24T05:30:10;91.43;;;61.70;;
19776;SDS011;10047;42.490;26.012;2022-12-24T05:32:36;106.85;;;74.32;;
19776;SDS011;10047;42.490;26.012;2022-12-24T05:35:01;118.00;;;75.78;;
19776;SDS011;10047;42.490;26.012;2022-12-24T05:37:27;104.78;;;73.28;;
19776;SDS011;10047;42.490;26.012;2022-12-24T05:39:52;127.78;;;86.25;;
19776;SDS011;10047;42.490;26.012;2022-12-24T05:42:18;128.25;;;86.20;;
19776;SDS011;10047;42.490;26.012;2022-12-24T05:44:43;116.97;;;80.63;;
19776;SDS011;10047;42.490;26.012;2022-12-24T05:47:10;131.02;;;88.38;;
19776;SDS011;10047;42.490;26.012;2022-12-24T05:49:35;129.80;;;81.35;;
19776;SDS011;10047;42.490;26.012;2022-12-24T05:52:00;129.60;;;80.57;;
19776;SDS011;10047;42.490;26.012;2022-12-24T05:54:26;141.18;;;77.30;;
19776;SDS011;10047;42.490;26.012;2022-12-24T05:56:51;149.00;;;88.60;;
19776;SDS011;10047;42.490;26.012;2022-12-24T05:59:17;159.52;;;99.20;;
19776;SDS011;10047;42.490;26.012;2022-12-24T06:01:42;122.95;;;73.32;;
19776;SDS011;10047;42.490;26.012;2022-12-24T06:04:11;158.73;;;81.20;;
19776;SDS011;10047;42.490;26.012;2022-12-24T06:06:36;145.55;;;75.60;;
19776;SDS011;10047;42.490;26.012;2022-12-24T06:09:02;145.13;;;70.88;;
19776;SDS011;10047;42.490;26.012;2022-12-24T06:11:27;176.13;;;72.93;;
19776;SDS011;10047;42.490;26.012;2022-12-24T06:13:53;176.70;;;76.47;;
19776;SDS011;10047;42.490;26.012;2022-12-24T06:16:20;449.35;;;112.38;;
19776;SDS011;10047;42.490;26.012;2022-12-24T06:18:46;269.85;;;90.05;;
19776;SDS011;10047;42.490;26.012;2022-12-24T06:21:12;268.02;;;88.35;;
19776;SDS011;10047;42.490;26.012;2022-12-24T06:23:38;362.10;;;109.80;;
19776;SDS011;10047;42.490;26.012;2022-12-24T06:26:06;520.47;;;140.02;;
19776;SDS011;10047;42.490;26.012;2022-12-24T06:28:33;508.92;;;155.15;;
19776;SDS011;10047;42.490;26.012;2022-12-24T06:31:01;466.35;;;192.52;;
19776;SDS011;10047;42.490;26.012;2022-12-24T06:33:27;718.22;;;216.45;;
19776;SDS011;10047;42.490;26.012;2022-12-24T06:35:53;542.80;;;162.85;;
19776;SDS011;10047;42.490;26.012;2022-12-24T06:38:19;447.17;;;157.88;;
19776;SDS011;10047;42.490;26.012;2022-12-24T06:40:45;377.92;;;145.75;;
19776;SDS011;10047;42.490;26.012;2022-12-24T06:43:20;358.23;;;143.48;;
19776;SDS011;10047;42.490;26.012;2022-12-24T06:45:46;328.52;;;138.95;;
19776;SDS011;10047;42.490;26.012;2022-12-24T06:48:12;354.27;;;184.57;;
19776;SDS011;10047;42.490;26.012;2022-12-24T06:50:38;321.23;;;196.98;;
19776;SDS011;10047;42.490;26.012;2022-12-24T06:53:04;337.20;;;187.73;;
19776;SDS011;10047;42.490;26.012;2022-12-24T06:55:30;446.63;;;185.63;;
19776;SDS011;10047;42.490;26.012;2022-12-24T06:57:56;337.10;;;182.10;;
19776;SDS011;10047;42.490;26.012;2022-12-24T07:00:21;283.52;;;178.55;;
19776;SDS011;10047;42.490;26.012;2022-12-24T07:02:47;279.67;;;162.25;;
19776;SDS011;10047;42.490;26.012;2022-12-24T07:05:12;311.65;;;176.25;;
19776;SDS011;10047;42.490;26.012;2022-12-24T07:07:39;214.00;;;132.00;;
19776;SDS011;10047;42.490;26.012;2022-12-24T07:10:07;248.95;;;133.77;;
19776;SDS011;10047;42.490;26.012;2022-12-24T07:12:34;316.20;;;170.48;;
19776;SDS011;10047;42.490;26.012;2022-12-24T07:15:00;336.25;;;177.55;;
19776;SDS011;10047;42.490;26.012;2022-12-24T07:17:25;286.08;;;155.32;;
19776;SDS011;10047;42.490;26.012;2022-12-24T07:19:51;337.08;;;183.15;;
19776;SDS011;10047;42.490;26.012;2022-12-24T07:22:16;212.85;;;118.10;;
19776;SDS011;10047;42.490;26.012;2022-12-24T07:24:42;177.38;;;103.68;;
19776;SDS011;10047;42.490;26.012;2022-12-24T07:27:07;159.55;;;100.70;;
19776;SDS011;10047;42.490;26.012;2022-12-24T07:29:34;155.55;;;99.72;;
19776;SDS011;10047;42.490;26.012;2022-12-24T07:31:59;181.63;;;114.07;;
19776;SDS011;10047;42.490;26.012;2022-12-24T07:34:25;194.18;;;121.55;;
19776;SDS011;10047;42.490;26.012;2022-12-24T07:36:50;194.23;;;116.50;;
19776;SDS011;10047;42.490;26.012;2022-12-24T07:41:45;173.52;;;101.38;;
19776;SDS011;10047;42.490;26.012;2022-12-24T07:44:13;179.05;;;106.28;;
19776;SDS011;10047;42.490;26.012;2022-12-24T07:46:39;173.68;;;106.28;;
19776;SDS011;10047;42.490;26.012;2022-12-24T07:49:05;152.05;;;96.57;;
19776;SDS011;10047;42.490;26.012;2022-12-24T07:51:30;172.77;;;107.78;;
19776;SDS011;10047;42.490;26.012;2022-12-24T07:53:56;179.32;;;116.65;;
19776;SDS011;10047;42.490;26.012;2022-12-24T07:56:21;172.80;;;115.10;;
19776;SDS011;10047;42.490;26.012;2022-12-24T07:58:48;225.75;;;145.15;;
19776;SDS011;10047;42.490;26.012;2022-12-24T08:01:14;300.13;;;194.13;;
19776;SDS011;10047;42.490;26.012;2022-12-24T08:03:40;296.15;;;185.95;;
19776;SDS011;10047;42.490;26.012;2022-12-24T08:06:05;240.70;;;141.85;;
19776;SDS011;10047;42.490;26.012;2022-12-24T08:08:31;202.43;;;119.88;;
19776;SDS011;10047;42.490;26.012;2022-12-24T08:11:00;143.00;;;91.03;;
19776;SDS011;10047;42.490;26.012;2022-12-24T08:13:29;136.68;;;85.38;;
19776;SDS011;10047;42.490;26.012;2022-12-24T08:15:54;138.50;;;82.68;;
19776;SDS011;10047;42.490;26.012;2022-12-24T08:18:20;135.60;;;79.30;;
19776;SDS011;10047;42.490;26.012;2022-12-24T08:20:45;140.23;;;86.50;;
19776;SDS011;10047;42.490;26.012;2022-12-24T08:23:11;113.68;;;69.65;;
19776;SDS011;10047;42.490;26.012;2022-12-24T08:25:36;81.07;;;51.00;;
19776;SDS011;10047;42.490;26.012;2022-12-24T08:28:05;79.68;;;52.13;;
19776;SDS011;10047;42.490;26.012;2022-12-24T08:30:31;76.07;;;49.85;;
19776;SDS011;10047;42.490;26.012;2022-12-24T08:32:57;81.32;;;51.50;;
19776;SDS011;10047;42.490;26.012;2022-12-24T08:35:22;79.20;;;51.85;;
19776;SDS011;10047;42.490;26.012;2022-12-24T08:37:47;88.78;;;57.92;;
19776;SDS011;10047;42.490;26.012;2022-12-24T08:40:13;77.47;;;52.78;;
19776;SDS011;10047;42.490;26.012;2022-12-24T08:42:39;78.38;;;53.55;;
19776;SDS011;10047;42.490;26.012;2022-12-24T08:45:04;78.78;;;52.97;;
19776;SDS011;10047;42.490;26.012;2022-12-24T08:47:30;78.13;;;50.78;;
19776;SDS011;10047;42.490;26.012;2022-12-24T08:49:56;74.22;;;51.08;;
19776;SDS011;10047;42.490;26.012;2022-12-24T08:52:21;74.88;;;50.63;;
19776;SDS011;10047;42.490;26.012;2022-12-24T08:54:46;77.68;;;51.75;;
19776;SDS011;10047;42.490;26.012;2022-12-24T08:57:12;74.25;;;50.97;;
19776;SDS011;10047;42.490;26.012;2022-12-24T08:59:38;75.22;;;52.20;;
19776;SDS011;10047;42.490;26.012;2022-12-24T09:02:04;71.05;;;48.30;;
19776;SDS011;10047;42.490;26.012;2022-12-24T09:04:30;68.38;;;47.05;;
19776;SDS011;10047;42.490;26.012;2022-12-24T09:06:55;72.85;;;49.47;;
19776;SDS011;10047;42.490;26.012;2022-12-24T09:09:20;66.63;;;46.40;;
19776;SDS011;10047;42.490;26.012;2022-12-24T09:11:46;67.07;;;46.25;;
19776;SDS011;10047;42.490;26.012;2022-12-24T09:14:11;63.50;;;41.80;;
19776;SDS011;10047;42.490;26.012;2022-12-24T09:16:37;64.00;;;44.88;;
19776;SDS011;10047;42.490;26.012;2022-12-24T09:19:03;67.20;;;45.47;;
19776;SDS011;10047;42.490;26.012;2022-12-24T09:21:28;67.18;;;44.53;;
19776;SDS011;10047;42.490;26.012;2022-12-24T09:23:55;67.38;;;44.65;;
19776;SDS011;10047;42.490;26.012;2022-12-24T09:26:22;63.90;;;45.38;;
19776;SDS011;10047;42.490;26.012;2022-12-24T09:28:49;64.55;;;45.45;;
19776;SDS011;10047;42.490;26.012;2022-12-24T09:31:15;70.47;;;47.65;;
19776;SDS011;10047;42.490;26.012;2022-12-24T09:33:41;69.65;;;47.40;;
19776;SDS011;10047;42.490;26.012;2022-12-24T09:36:08;66.15;;;45.10;;
19776;SDS011;10047;42.490;26.012;2022-12-24T09:38:34;75.13;;;48.65;;
19776;SDS011;10047;42.490;26.012;2022-12-24T09:41:09;65.68;;;47.90;;
19776;SDS011;10047;42.490;26.012;2022-12-24T09:43:39;72.40;;;48.47;;
19776;SDS011;10047;42.490;26.012;2022-12-24T09:46:30;74.10;;;51.53;;
19776;SDS011;10047;42.490;26.012;2022-12-24T09:49:09;69.72;;;47.53;;
19776;SDS011;10047;42.490;26.012;2022-12-24T09:51:40;72.13;;;47.72;;
19776;SDS011;10047;42.490;26.012;2022-12-24T09:54:14;69.20;;;47.50;;
19776;SDS011;10047;42.490;26.012;2022-12-24T09:56:43;68.25;;;41.67;;
19776;SDS011;10047;42.490;26.012;2022-12-24T09:59:12;100.57;;;45.67;;
19776;SDS011;10047;42.490;26.012;2022-12-24T10:01:40;59.08;;;42.13;;
19776;SDS011;10047;42.490;26.012;2022-12-24T10:04:08;61.60;;;43.55;;
19776;SDS011;10047;42.490;26.012;2022-12-24T10:06:44;53.40;;;38.58;;
19776;SDS011;10047;42.490;26.012;2022-12-24T10:22:22;46.08;;;35.20;;
19776;SDS011;10047;42.490;26.012;2022-12-24T10:27:51;63.70;;;46.33;;
19776;SDS011;10047;42.490;26.012;2022-12-24T10:30:20;67.15;;;45.58;;
19776;SDS011;10047;42.490;26.012;2022-12-24T10:32:48;75.15;;;52.90;;
19776;SDS011;10047;42.490;26.012;2022-12-24T10:37:44;60.33;;;47.38;;
19776;SDS011;10047;42.490;26.012;2022-12-24T10:40:57;55.90;;;41.03;;
19776;SDS011;10047;42.490;26.012;2022-12-24T10:43:18;56.33;;;42.67;;
19776;SDS011;10047;42.490;26.012;2022-12-24T10:45:55;61.05;;;42.53;;
19776;SDS011;10047;42.490;26.012;2022-12-24T10:48:28;58.40;;;43.22;;
19776;SDS011;10047;42.490;26.012;2022-12-24T10:50:58;56.33;;;41.70;;
19776;SDS011;10047;42.490;26.012;2022-12-24T10:53:30;53.00;;;41.00;;
19776;SDS011;10047;42.490;26.012;2022-12-24T10:56:16;53.95;;;39.42;;
19776;SDS011;10047;42.490;26.012;2022-12-24T10:58:44;52.88;;;38.22;;
19776;SDS011;10047;42.490;26.012;2022-12-24T11:01:14;58.67;;;41.65;;
19776;SDS011;10047;42.490;26.012;2022-12-24T11:03:40;66.65;;;49.35;;
19776;SDS011;10047;42.490;26.012;2022-12-24T11:08:35;51.72;;;39.78;;
19776;SDS011;10047;42.490;26.012;2022-12-24T11:11:04;52.67;;;41.05;;
19776;SDS011;10047;42.490;26.012;2022-12-24T11:18:49;53.38;;;40.75;;
19776;SDS011;10047;42.490;26.012;2022-12-24T11:21:39;57.63;;;41.60;;
19776;SDS011;10047;42.490;26.012;2022-12-24T11:26:36;62.65;;;45.92;;
19776;SDS011;10047;42.490;26.012;2022-12-24T11:31:45;76.30;;;58.60;;
19776;SDS011;10047;42.490;26.012;2022-12-24T11:34:21;66.20;;;48.38;;
19776;SDS011;10047;42.490;26.012;2022-12-24T11:39:40;71.05;;;51.67;;
19776;SDS011;10047;42.490;26.012;2022-12-24T11:44:59;63.00;;;48.35;;
19776;SDS011;10047;42.490;26.012;2022-12-24T11:47:35;57.67;;;44.53;;
19776;SDS011;10047;42.490;26.012;2022-12-24T11:52:51;57.75;;;42.55;;
19776;SDS011;10047;42.490;26.012;2022-12-24T11:58:18;58.45;;;43.38;;
19776;SDS011;10047;42.490;26.012;2022-12-24T12:00:44;62.25;;;46.72;;
19776;SDS011;10047;42.490;26.012;2022-12-24T12:05:54;63.78;;;42.38;;
19776;SDS011;10047;42.490;26.012;2022-12-24T12:08:23;63.55;;;46.80;;
19776;SDS011;10047;42.490;26.012;2022-12-24T12:10:52;56.25;;;42.70;;
19776;SDS011;10047;42.490;26.012;2022-12-24T12:13:19;53.92;;;41.55;;
19776;SDS011;10047;42.490;26.012;2022-12-24T12:19:15;63.28;;;45.90;;
19776;SDS011;10047;42.490;26.012;2022-12-24T12:21:45;49.42;;;36.72;;
19776;SDS011;10047;42.490;26.012;2022-12-24T12:24:15;52.03;;;37.85;;
19776;SDS011;10047;42.490;26.012;2022-12-24T12:27:02;48.08;;;35.30;;
19776;SDS011;10047;42.490;26.012;2022-12-24T12:29:32;55.70;;;39.20;;
19776;SDS011;10047;42.490;26.012;2022-12-24T12:32:09;55.15;;;43.13;;
19776;SDS011;10047;42.490;26.012;2022-12-24T12:34:41;50.63;;;38.03;;
19776;SDS011;10047;42.490;26.012;2022-12-24T12:37:13;47.70;;;35.65;;
19776;SDS011;10047;42.490;26.012;2022-12-24T12:39:48;42.42;;;33.28;;
19776;SDS011;10047;42.490;26.012;2022-12-24T12:42:19;50.75;;;36.33;;
19776;SDS011;10047;42.490;26.012;2022-12-24T12:48:17;55.97;;;40.83;;
19776;SDS011;10047;42.490;26.012;2022-12-24T12:58:53;58.37;;;41.47;;
19776;SDS011;10047;42.490;26.012;2022-12-24T13:22:28;66.78;;;49.03;;
19776;SDS011;10047;42.490;26.012;2022-12-24T13:24:54;67.05;;;44.72;;
19776;SDS011;10047;42.490;26.012;2022-12-24T13:27:27;60.80;;;42.28;;
19776;SDS011;10047;42.490;26.012;2022-12-24T13:30:03;55.10;;;39.70;;
19776;SDS011;10047;42.490;26.012;2022-12-24T13:32:57;55.80;;;40.47;;
19776;SDS011;10047;42.490;26.012;2022-12-24T13:37:48;52.15;;;35.47;;
19776;SDS011;10047;42.490;26.012;2022-12-24T13:40:16;47.78;;;35.35;;
19776;SDS011;10047;42.490;26.012;2022-12-24T13:50:50;51.17;;;37.50;;
19776;SDS011;10047;42.490;26.012;2022-12-24T13:58:32;57.50;;;41.92;;
19776;SDS011;10047;42.490;26.012;2022-12-24T14:01:09;67.32;;;47.30;;
19776;SDS011;10047;42.490;26.012;2022-12-24T14:03:41;99.00;;;61.65;;
19776;SDS011;10047;42.490;26.012;2022-12-24T14:06:10;71.95;;;50.33;;
19776;SDS011;10047;42.490;26.012;2022-12-24T14:08:55;73.53;;;50.67;;
19776;SDS011;10047;42.490;26.012;2022-12-24T14:11:29;67.35;;;46.67;;
19776;SDS011;10047;42.490;26.012;2022-12-24T14:14:27;70.43;;;48.22;;
19776;SDS011;10047;42.490;26.012;2022-12-24T14:17:40;69.75;;;48.58;;
19776;SDS011;10047;42.490;26.012;2022-12-24T14:19:56;76.32;;;49.72;;
19776;SDS011;10047;42.490;26.012;2022-12-24T14:24:56;81.20;;;55.88;;
19776;SDS011;10047;42.490;26.012;2022-12-24T14:32:43;87.00;;;55.60;;
19776;SDS011;10047;42.490;26.012;2022-12-24T14:37:35;78.80;;;52.25;;
19776;SDS011;10047;42.490;26.012;2022-12-24T14:40:00;72.03;;;51.45;;
19776;SDS011;10047;42.490;26.012;2022-12-24T14:45:16;73.07;;;50.20;;
19776;SDS011;10047;42.490;26.012;2022-12-24T14:56:25;128.05;;;89.68;;
19776;SDS011;10047;42.490;26.012;2022-12-24T14:58:51;119.43;;;83.47;;
19776;SDS011;10047;42.490;26.012;2022-12-24T15:03:42;135.05;;;95.63;;
19776;SDS011;10047;42.490;26.012;2022-12-24T15:06:07;154.20;;;113.20;;
19776;SDS011;10047;42.490;26.012;2022-12-24T15:08:37;155.65;;;104.70;;
19776;SDS011;10047;42.490;26.012;2022-12-24T15:11:08;148.27;;;106.78;;
19776;SDS011;10047;42.490;26.012;2022-12-24T15:13:40;164.75;;;113.85;;
19776;SDS011;10047;42.490;26.012;2022-12-24T15:16:18;139.98;;;101.43;;
19776;SDS011;10047;42.490;26.012;2022-12-24T15:18:51;141.60;;;105.25;;
19776;SDS011;10047;42.490;26.012;2022-12-24T15:21:29;148.05;;;108.15;;
19776;SDS011;10047;42.490;26.012;2022-12-24T15:24:01;138.90;;;103.57;;
19776;SDS011;10047;42.490;26.012;2022-12-24T15:28:59;127.15;;;95.43;;
19776;SDS011;10047;42.490;26.012;2022-12-24T15:31:27;143.65;;;103.55;;
19776;SDS011;10047;42.490;26.012;2022-12-24T15:33:54;115.85;;;83.80;;
19776;SDS011;10047;42.490;26.012;2022-12-24T15:36:31;112.70;;;77.85;;
19776;SDS011;10047;42.490;26.012;2022-12-24T15:39:12;141.32;;;89.18;;
19776;SDS011;10047;42.490;26.012;2022-12-24T15:41:42;137.02;;;87.63;;
19776;SDS011;10047;42.490;26.012;2022-12-24T15:44:34;134.45;;;89.93;;
19776;SDS011;10047;42.490;26.012;2022-12-24T15:47:02;142.63;;;97.43;;
19776;SDS011;10047;42.490;26.012;2022-12-24T15:49:31;145.40;;;97.35;;
19776;SDS011;10047;42.490;26.012;2022-12-24T15:52:07;139.70;;;93.57;;
19776;SDS011;10047;42.490;26.012;2022-12-24T15:54:35;133.43;;;91.40;;
19776;SDS011;10047;42.490;26.012;2022-12-24T15:57:14;137.25;;;95.40;;
19776;SDS011;10047;42.490;26.012;2022-12-24T15:59:57;137.73;;;92.40;;
19776;SDS011;10047;42.490;26.012;2022-12-24T16:02:37;133.60;;;95.05;;
19776;SDS011;10047;42.490;26.012;2022-12-24T16:08:00;157.60;;;112.75;;
19776;SDS011;10047;42.490;26.012;2022-12-24T16:10:33;153.70;;;111.28;;
19776;SDS011;10047;42.490;26.012;2022-12-24T16:13:09;155.48;;;109.93;;
19776;SDS011;10047;42.490;26.012;2022-12-24T16:15:39;158.45;;;110.00;;
19776;SDS011;10047;42.490;26.012;2022-12-24T16:18:27;150.00;;;106.22;;
19776;SDS011;10047;42.490;26.012;2022-12-24T16:21:06;148.20;;;102.35;;
19776;SDS011;10047;42.490;26.012;2022-12-24T16:23:36;142.20;;;101.10;;
19776;SDS011;10047;42.490;26.012;2022-12-24T16:26:08;149.02;;;105.65;;
19776;SDS011;10047;42.490;26.012;2022-12-24T16:28:34;154.98;;;107.60;;
19776;SDS011;10047;42.490;26.012;2022-12-24T16:30:59;145.20;;;107.72;;
19776;SDS011;10047;42.490;26.012;2022-12-24T16:33:25;187.07;;;128.07;;
19776;SDS011;10047;42.490;26.012;2022-12-24T16:35:50;177.68;;;126.60;;
19776;SDS011;10047;42.490;26.012;2022-12-24T16:38:16;191.75;;;135.80;;
19776;SDS011;10047;42.490;26.012;2022-12-24T16:40:41;196.98;;;134.20;;
19776;SDS011;10047;42.490;26.012;2022-12-24T16:43:08;213.90;;;145.85;;
19776;SDS011;10047;42.490;26.012;2022-12-24T16:45:52;274.40;;;193.50;;
19776;SDS011;10047;42.490;26.012;2022-12-24T16:48:23;193.30;;;130.68;;
19776;SDS011;10047;42.490;26.012;2022-12-24T16:50:50;255.15;;;177.02;;